sensor_id;sensor_type;location;lat;lon;timestamp;P1;durP1;ratioP1;P2;durP2;ratioP2
71106;SDS011;58763;47.982;11.516;2024-03-25T00:01:30;4.55;;;1.50;;
71106;SDS011;58763;47.982;11.516;2024-03-25T00:03:56;4.47;;;1.50;;
71106;SDS011;58763;47.982;11.516;2024-03-25T00:06:21;3.70;;;1.48;;
71106;SDS011;58763;47.982;11.516;2024-03-25T00:08:47;3.45;;;1.52;;
71106;SDS011;58763;47.982;11.516;2024-03-25T00:11:13;5.40;;;1.42;;
71106;SDS011;58763;47.982;11.516;2024-03-25T00:13:39;3.75;;;1.63;;
71106;SDS011;58763;47.982;11.516;2024-03-25T00:16:05;4.32;;;1.50;;
71106;SDS011;58763;47.982;11.516;2024-03-25T00:18:32;5.20;;;1.58;;
71106;SDS011;58763;47.982;11.516;2024-03-25T00:20:57;4.22;;;1.40;;
71106;SDS011;58763;47.982;11.516;2024-03-25T00:23:23;3.55;;;1.52;;
71106;SDS011;58763;47.982;11.516;2024-03-25T00:25:49;5.90;;;1.70;;
71106;SDS011;58763;47.982;11.516;2024-03-25T00:28:15;4.65;;;1.63;;
71106;SDS011;58763;47.982;11.516;2024-03-25T00:30:41;5.28;;;1.30;;
71106;SDS011;58763;47.982;11.516;2024-03-25T00:33:06;3.72;;;1.23;;
71106;SDS011;58763;47.982;11.516;2024-03-25T00:35:32;4.03;;;1.52;;
71106;SDS011;58763;47.982;11.516;2024-03-25T00:37:59;6.50;;;1.50;;
71106;SDS011;58763;47.982;11.516;2024-03-25T00:40:25;5.60;;;1.60;;
71106;SDS011;58763;47.982;11.516;2024-03-25T00:42:51;4.03;;;1.40;;
71106;SDS011;58763;47.982;11.516;2024-03-25T00:45:17;3.63;;;1.52;;
71106;SDS011;58763;47.982;11.516;2024-03-25T00:47:43;4.35;;;1.35;;
71106;SDS011;58763;47.982;11.516;2024-03-25T00:50:09;3.35;;;1.60;;
71106;SDS011;58763;47.982;11.516;2024-03-25T00:52:35;5.28;;;1.80;;
71106;SDS011;58763;47.982;11.516;2024-03-25T00:55:02;5.20;;;1.60;;
71106;SDS011;58763;47.982;11.516;2024-03-25T00:57:28;2.92;;;1.50;;
71106;SDS011;58763;47.982;11.516;2024-03-25T00:59:55;3.28;;;1.55;;
71106;SDS011;58763;47.982;11.516;2024-03-25T01:02:21;3.97;;;1.63;;
71106;SDS011;58763;47.982;11.516;2024-03-25T01:04:46;5.75;;;1.50;;
71106;SDS011;58763;47.982;11.516;2024-03-25T01:07:13;3.13;;;1.35;;
71106;SDS011;58763;47.982;11.516;2024-03-25T01:09:38;3.08;;;1.25;;
71106;SDS011;58763;47.982;11.516;2024-03-25T01:12:04;3.55;;;1.40;;
71106;SDS011;58763;47.982;11.516;2024-03-25T01:14:30;2.47;;;1.10;;
71106;SDS011;58763;47.982;11.516;2024-03-25T01:16:55;3.17;;;1.27;;
71106;SDS011;58763;47.982;11.516;2024-03-25T01:19:21;3.50;;;1.60;;
71106;SDS011;58763;47.982;11.516;2024-03-25T01:21:47;5.80;;;1.65;;
71106;SDS011;58763;47.982;11.516;2024-03-25T01:24:14;6.43;;;1.25;;
71106;SDS011;58763;47.982;11.516;2024-03-25T01:26:40;3.22;;;1.40;;
71106;SDS011;58763;47.982;11.516;2024-03-25T01:29:05;3.20;;;1.20;;
71106;SDS011;58763;47.982;11.516;2024-03-25T01:31:31;3.20;;;1.48;;
71106;SDS011;58763;47.982;11.516;2024-03-25T01:33:56;3.35;;;1.20;;
71106;SDS011;58763;47.982;11.516;2024-03-25T01:36:22;3.80;;;1.45;;
71106;SDS011;58763;47.982;11.516;2024-03-25T01:38:47;4.40;;;1.23;;
71106;SDS011;58763;47.982;11.516;2024-03-25T01:41:14;3.53;;;1.30;;
71106;SDS011;58763;47.982;11.516;2024-03-25T01:43:42;2.63;;;1.10;;
71106;SDS011;58763;47.982;11.516;2024-03-25T01:46:08;3.97;;;0.90;;
71106;SDS011;58763;47.982;11.516;2024-03-25T01:48:35;3.88;;;1.10;;
71106;SDS011;58763;47.982;11.516;2024-03-25T01:51:01;3.10;;;1.00;;
71106;SDS011;58763;47.982;11.516;2024-03-25T01:53:28;2.95;;;1.10;;
71106;SDS011;58763;47.982;11.516;2024-03-25T01:55:55;2.33;;;1.02;;
71106;SDS011;58763;47.982;11.516;2024-03-25T01:58:22;4.90;;;1.30;;
71106;SDS011;58763;47.982;11.516;2024-03-25T02:00:48;4.13;;;1.30;;
71106;SDS011;58763;47.982;11.516;2024-03-25T02:03:15;2.47;;;0.98;;
71106;SDS011;58763;47.982;11.516;2024-03-25T02:05:41;2.42;;;1.10;;
71106;SDS011;58763;47.982;11.516;2024-03-25T02:08:08;2.80;;;1.20;;
71106;SDS011;58763;47.982;11.516;2024-03-25T02:10:35;3.95;;;1.40;;
71106;SDS011;58763;47.982;11.516;2024-03-25T02:13:01;3.33;;;1.30;;
71106;SDS011;58763;47.982;11.516;2024-03-25T02:15:26;3.85;;;1.30;;
71106;SDS011;58763;47.982;11.516;2024-03-25T02:17:53;3.20;;;1.40;;
71106;SDS011;58763;47.982;11.516;2024-03-25T02:20:18;4.13;;;1.40;;
71106;SDS011;58763;47.982;11.516;2024-03-25T02:22:44;4.13;;;1.40;;
71106;SDS011;58763;47.982;11.516;2024-03-25T02:25:10;3.85;;;1.65;;
71106;SDS011;58763;47.982;11.516;2024-03-25T02:27:36;6.15;;;1.60;;
71106;SDS011;58763;47.982;11.516;2024-03-25T02:30:04;4.00;;;1.55;;
71106;SDS011;58763;47.982;11.516;2024-03-25T02:32:33;3.95;;;1.50;;
71106;SDS011;58763;47.982;11.516;2024-03-25T02:34:59;3.70;;;1.67;;
71106;SDS011;58763;47.982;11.516;2024-03-25T02:37:27;4.55;;;1.60;;
71106;SDS011;58763;47.982;11.516;2024-03-25T02:39:54;3.78;;;1.70;;
71106;SDS011;58763;47.982;11.516;2024-03-25T02:42:23;3.30;;;1.65;;
71106;SDS011;58763;47.982;11.516;2024-03-25T02:44:49;3.38;;;1.60;;
71106;SDS011;58763;47.982;11.516;2024-03-25T02:47:15;2.70;;;1.20;;
71106;SDS011;58763;47.982;11.516;2024-03-25T02:49:43;6.18;;;1.90;;
71106;SDS011;58763;47.982;11.516;2024-03-25T02:52:08;3.15;;;1.48;;
71106;SDS011;58763;47.982;11.516;2024-03-25T02:54:34;4.05;;;1.55;;
71106;SDS011;58763;47.982;11.516;2024-03-25T02:56:59;3.60;;;1.55;;
71106;SDS011;58763;47.982;11.516;2024-03-25T02:59:25;5.35;;;1.90;;
71106;SDS011;58763;47.982;11.516;2024-03-25T03:01:50;3.40;;;1.60;;
71106;SDS011;58763;47.982;11.516;2024-03-25T03:04:16;5.70;;;1.83;;
71106;SDS011;58763;47.982;11.516;2024-03-25T03:06:41;4.20;;;1.52;;
71106;SDS011;58763;47.982;11.516;2024-03-25T03:09:07;5.60;;;1.65;;
71106;SDS011;58763;47.982;11.516;2024-03-25T03:11:33;4.38;;;1.80;;
71106;SDS011;58763;47.982;11.516;2024-03-25T03:13:58;5.28;;;1.58;;
71106;SDS011;58763;47.982;11.516;2024-03-25T03:16:24;4.88;;;1.58;;
71106;SDS011;58763;47.982;11.516;2024-03-25T03:18:49;5.93;;;1.77;;
71106;SDS011;58763;47.982;11.516;2024-03-25T03:21:15;6.18;;;1.65;;
71106;SDS011;58763;47.982;11.516;2024-03-25T03:23:41;3.38;;;1.70;;
71106;SDS011;58763;47.982;11.516;2024-03-25T03:26:06;4.63;;;1.95;;
71106;SDS011;58763;47.982;11.516;2024-03-25T03:28:32;8.95;;;2.00;;
71106;SDS011;58763;47.982;11.516;2024-03-25T03:30:58;3.63;;;1.63;;
71106;SDS011;58763;47.982;11.516;2024-03-25T03:33:23;6.63;;;3.22;;
71106;SDS011;58763;47.982;11.516;2024-03-25T03:35:49;5.53;;;2.00;;
71106;SDS011;58763;47.982;11.516;2024-03-25T03:38:15;5.00;;;2.08;;
71106;SDS011;58763;47.982;11.516;2024-03-25T03:40:41;4.15;;;1.83;;
71106;SDS011;58763;47.982;11.516;2024-03-25T03:43:07;4.35;;;1.60;;
71106;SDS011;58763;47.982;11.516;2024-03-25T03:45:33;4.25;;;1.60;;
71106;SDS011;58763;47.982;11.516;2024-03-25T03:48:01;6.38;;;2.10;;
71106;SDS011;58763;47.982;11.516;2024-03-25T03:50:27;4.82;;;1.83;;
71106;SDS011;58763;47.982;11.516;2024-03-25T03:52:53;4.97;;;1.80;;
71106;SDS011;58763;47.982;11.516;2024-03-25T03:55:19;5.63;;;1.73;;
71106;SDS011;58763;47.982;11.516;2024-03-25T03:57:44;5.22;;;1.80;;
71106;SDS011;58763;47.982;11.516;2024-03-25T04:00:10;4.00;;;1.58;;
71106;SDS011;58763;47.982;11.516;2024-03-25T04:02:38;7.57;;;1.63;;
71106;SDS011;58763;47.982;11.516;2024-03-25T04:05:03;4.70;;;2.00;;
71106;SDS011;58763;47.982;11.516;2024-03-25T04:07:29;5.47;;;1.88;;
71106;SDS011;58763;47.982;11.516;2024-03-25T04:09:58;4.82;;;1.98;;
71106;SDS011;58763;47.982;11.516;2024-03-25T04:12:25;7.22;;;1.83;;
71106;SDS011;58763;47.982;11.516;2024-03-25T04:14:51;4.93;;;1.70;;
71106;SDS011;58763;47.982;11.516;2024-03-25T04:17:20;3.20;;;1.70;;
71106;SDS011;58763;47.982;11.516;2024-03-25T04:19:48;4.30;;;1.85;;
71106;SDS011;58763;47.982;11.516;2024-03-25T04:22:14;3.78;;;1.60;;
71106;SDS011;58763;47.982;11.516;2024-03-25T04:24:40;4.15;;;1.67;;
71106;SDS011;58763;47.982;11.516;2024-03-25T04:27:05;5.40;;;1.63;;
71106;SDS011;58763;47.982;11.516;2024-03-25T04:29:31;6.35;;;2.08;;
71106;SDS011;58763;47.982;11.516;2024-03-25T04:31:57;4.55;;;1.63;;
71106;SDS011;58763;47.982;11.516;2024-03-25T04:34:22;4.68;;;1.85;;
71106;SDS011;58763;47.982;11.516;2024-03-25T04:36:48;5.53;;;1.70;;
71106;SDS011;58763;47.982;11.516;2024-03-25T04:39:14;5.07;;;1.75;;
71106;SDS011;58763;47.982;11.516;2024-03-25T04:41:40;4.22;;;1.90;;
71106;SDS011;58763;47.982;11.516;2024-03-25T04:44:06;5.00;;;1.67;;
71106;SDS011;58763;47.982;11.516;2024-03-25T04:46:31;4.75;;;1.70;;
71106;SDS011;58763;47.982;11.516;2024-03-25T04:48:57;3.35;;;1.67;;
71106;SDS011;58763;47.982;11.516;2024-03-25T04:51:23;5.10;;;1.77;;
71106;SDS011;58763;47.982;11.516;2024-03-25T04:53:49;3.95;;;1.85;;
71106;SDS011;58763;47.982;11.516;2024-03-25T04:56:14;3.60;;;1.67;;
71106;SDS011;58763;47.982;11.516;2024-03-25T04:58:40;4.00;;;1.50;;
71106;SDS011;58763;47.982;11.516;2024-03-25T05:01:06;4.20;;;1.83;;
71106;SDS011;58763;47.982;11.516;2024-03-25T05:03:31;4.03;;;1.80;;
71106;SDS011;58763;47.982;11.516;2024-03-25T05:05:57;3.83;;;1.67;;
71106;SDS011;58763;47.982;11.516;2024-03-25T05:08:23;6.25;;;1.83;;
71106;SDS011;58763;47.982;11.516;2024-03-25T05:10:50;3.90;;;1.55;;
71106;SDS011;58763;47.982;11.516;2024-03-25T05:13:15;5.07;;;1.70;;
71106;SDS011;58763;47.982;11.516;2024-03-25T05:15:48;5.60;;;2.05;;
71106;SDS011;58763;47.982;11.516;2024-03-25T05:18:18;4.00;;;2.03;;
71106;SDS011;58763;47.982;11.516;2024-03-25T05:20:44;5.82;;;1.95;;
71106;SDS011;58763;47.982;11.516;2024-03-25T05:23:10;6.63;;;2.20;;
71106;SDS011;58763;47.982;11.516;2024-03-25T05:25:36;4.47;;;1.80;;
71106;SDS011;58763;47.982;11.516;2024-03-25T05:28:04;3.83;;;1.90;;
71106;SDS011;58763;47.982;11.516;2024-03-25T05:30:29;4.72;;;1.70;;
71106;SDS011;58763;47.982;11.516;2024-03-25T05:32:55;7.38;;;1.95;;
71106;SDS011;58763;47.982;11.516;2024-03-25T05:35:21;5.50;;;1.88;;
71106;SDS011;58763;47.982;11.516;2024-03-25T05:37:47;5.75;;;1.77;;
71106;SDS011;58763;47.982;11.516;2024-03-25T05:40:13;4.32;;;1.90;;
71106;SDS011;58763;47.982;11.516;2024-03-25T05:42:40;5.78;;;1.95;;
71106;SDS011;58763;47.982;11.516;2024-03-25T05:45:09;3.72;;;1.88;;
71106;SDS011;58763;47.982;11.516;2024-03-25T05:47:35;6.38;;;1.98;;
71106;SDS011;58763;47.982;11.516;2024-03-25T05:50:01;4.38;;;1.50;;
71106;SDS011;58763;47.982;11.516;2024-03-25T05:52:29;4.50;;;2.00;;
71106;SDS011;58763;47.982;11.516;2024-03-25T05:54:54;6.07;;;2.13;;
71106;SDS011;58763;47.982;11.516;2024-03-25T05:57:20;5.10;;;1.90;;
71106;SDS011;58763;47.982;11.516;2024-03-25T05:59:46;4.85;;;1.85;;
71106;SDS011;58763;47.982;11.516;2024-03-25T06:02:11;5.72;;;2.10;;
71106;SDS011;58763;47.982;11.516;2024-03-25T06:04:37;8.25;;;2.03;;
71106;SDS011;58763;47.982;11.516;2024-03-25T06:07:03;6.78;;;2.55;;
71106;SDS011;58763;47.982;11.516;2024-03-25T06:09:28;5.13;;;2.08;;
71106;SDS011;58763;47.982;11.516;2024-03-25T06:11:54;6.60;;;2.00;;
71106;SDS011;58763;47.982;11.516;2024-03-25T06:14:20;7.32;;;2.00;;
71106;SDS011;58763;47.982;11.516;2024-03-25T06:16:46;6.28;;;2.13;;
71106;SDS011;58763;47.982;11.516;2024-03-25T06:19:11;5.00;;;2.22;;
71106;SDS011;58763;47.982;11.516;2024-03-25T06:21:38;4.65;;;2.10;;
71106;SDS011;58763;47.982;11.516;2024-03-25T06:24:04;3.92;;;1.70;;
71106;SDS011;58763;47.982;11.516;2024-03-25T06:26:30;4.82;;;2.22;;
71106;SDS011;58763;47.982;11.516;2024-03-25T06:28:56;5.75;;;2.03;;
71106;SDS011;58763;47.982;11.516;2024-03-25T06:31:21;6.95;;;1.98;;
71106;SDS011;58763;47.982;11.516;2024-03-25T06:34:06;6.72;;;2.38;;
71106;SDS011;58763;47.982;11.516;2024-03-25T06:36:50;6.80;;;2.00;;
71106;SDS011;58763;47.982;11.516;2024-03-25T06:39:16;6.15;;;2.25;;
71106;SDS011;58763;47.982;11.516;2024-03-25T06:41:41;6.38;;;2.10;;
71106;SDS011;58763;47.982;11.516;2024-03-25T06:44:07;8.57;;;2.20;;
71106;SDS011;58763;47.982;11.516;2024-03-25T06:46:33;6.20;;;2.00;;
71106;SDS011;58763;47.982;11.516;2024-03-25T06:48:59;5.00;;;2.03;;
71106;SDS011;58763;47.982;11.516;2024-03-25T06:51:25;6.43;;;2.05;;
71106;SDS011;58763;47.982;11.516;2024-03-25T06:53:52;5.28;;;2.15;;
71106;SDS011;58763;47.982;11.516;2024-03-25T06:56:17;7.65;;;2.30;;
71106;SDS011;58763;47.982;11.516;2024-03-25T06:58:43;4.50;;;1.70;;
71106;SDS011;58763;47.982;11.516;2024-03-25T07:01:09;4.70;;;1.80;;
71106;SDS011;58763;47.982;11.516;2024-03-25T07:03:39;6.45;;;2.15;;
71106;SDS011;58763;47.982;11.516;2024-03-25T07:06:04;3.75;;;1.77;;
71106;SDS011;58763;47.982;11.516;2024-03-25T07:08:30;3.85;;;1.90;;
71106;SDS011;58763;47.982;11.516;2024-03-25T07:10:57;4.20;;;1.77;;
71106;SDS011;58763;47.982;11.516;2024-03-25T07:13:23;6.28;;;2.15;;
71106;SDS011;58763;47.982;11.516;2024-03-25T07:15:49;5.07;;;1.75;;
71106;SDS011;58763;47.982;11.516;2024-03-25T07:18:15;4.13;;;1.77;;
71106;SDS011;58763;47.982;11.516;2024-03-25T07:20:40;5.10;;;2.17;;
71106;SDS011;58763;47.982;11.516;2024-03-25T07:23:07;7.75;;;2.20;;
71106;SDS011;58763;47.982;11.516;2024-03-25T07:25:33;4.07;;;1.88;;
71106;SDS011;58763;47.982;11.516;2024-03-25T07:27:59;6.82;;;1.60;;
71106;SDS011;58763;47.982;11.516;2024-03-25T07:30:25;5.00;;;1.80;;
71106;SDS011;58763;47.982;11.516;2024-03-25T07:32:54;4.60;;;1.92;;
71106;SDS011;58763;47.982;11.516;2024-03-25T07:35:20;4.18;;;1.60;;
71106;SDS011;58763;47.982;11.516;2024-03-25T07:37:46;3.97;;;1.60;;
71106;SDS011;58763;47.982;11.516;2024-03-25T07:40:12;4.93;;;1.83;;
71106;SDS011;58763;47.982;11.516;2024-03-25T07:42:38;6.10;;;1.75;;
71106;SDS011;58763;47.982;11.516;2024-03-25T07:45:05;5.40;;;1.80;;
71106;SDS011;58763;47.982;11.516;2024-03-25T07:47:32;4.10;;;1.83;;
71106;SDS011;58763;47.982;11.516;2024-03-25T07:49:58;3.78;;;1.63;;
71106;SDS011;58763;47.982;11.516;2024-03-25T07:52:27;4.35;;;1.70;;
71106;SDS011;58763;47.982;11.516;2024-03-25T07:54:53;4.70;;;1.60;;
71106;SDS011;58763;47.982;11.516;2024-03-25T07:57:19;4.75;;;1.80;;
71106;SDS011;58763;47.982;11.516;2024-03-25T07:59:45;5.43;;;1.50;;
71106;SDS011;58763;47.982;11.516;2024-03-25T08:02:11;4.88;;;1.70;;
71106;SDS011;58763;47.982;11.516;2024-03-25T08:04:37;5.72;;;1.80;;
71106;SDS011;58763;47.982;11.516;2024-03-25T08:07:02;4.68;;;1.77;;
71106;SDS011;58763;47.982;11.516;2024-03-25T08:09:28;6.50;;;1.50;;
71106;SDS011;58763;47.982;11.516;2024-03-25T08:11:54;4.05;;;1.50;;
71106;SDS011;58763;47.982;11.516;2024-03-25T08:14:20;6.28;;;1.70;;
71106;SDS011;58763;47.982;11.516;2024-03-25T08:16:45;5.40;;;1.50;;
71106;SDS011;58763;47.982;11.516;2024-03-25T08:19:12;4.95;;;1.50;;
71106;SDS011;58763;47.982;11.516;2024-03-25T08:21:37;4.55;;;1.80;;
71106;SDS011;58763;47.982;11.516;2024-03-25T08:24:04;4.90;;;1.80;;
71106;SDS011;58763;47.982;11.516;2024-03-25T08:26:30;4.35;;;1.60;;
71106;SDS011;58763;47.982;11.516;2024-03-25T08:28:57;5.18;;;1.77;;
71106;SDS011;58763;47.982;11.516;2024-03-25T08:31:22;3.92;;;1.40;;
71106;SDS011;58763;47.982;11.516;2024-03-25T08:33:48;3.83;;;1.73;;
71106;SDS011;58763;47.982;11.516;2024-03-25T08:36:14;4.53;;;1.42;;
71106;SDS011;58763;47.982;11.516;2024-03-25T08:38:39;3.80;;;1.33;;
71106;SDS011;58763;47.982;11.516;2024-03-25T08:41:05;4.25;;;1.60;;
71106;SDS011;58763;47.982;11.516;2024-03-25T08:43:31;5.22;;;1.40;;
71106;SDS011;58763;47.982;11.516;2024-03-25T08:45:57;4.07;;;1.60;;
71106;SDS011;58763;47.982;11.516;2024-03-25T08:48:23;5.03;;;1.40;;
71106;SDS011;58763;47.982;11.516;2024-03-25T08:50:49;3.55;;;1.30;;
71106;SDS011;58763;47.982;11.516;2024-03-25T08:53:14;7.03;;;1.42;;
71106;SDS011;58763;47.982;11.516;2024-03-25T08:55:44;5.50;;;1.50;;
71106;SDS011;58763;47.982;11.516;2024-03-25T08:58:11;3.95;;;1.77;;
71106;SDS011;58763;47.982;11.516;2024-03-25T09:00:37;5.53;;;1.38;;
71106;SDS011;58763;47.982;11.516;2024-03-25T09:03:03;4.90;;;1.30;;
71106;SDS011;58763;47.982;11.516;2024-03-25T09:05:30;6.35;;;1.40;;
71106;SDS011;58763;47.982;11.516;2024-03-25T09:07:55;3.63;;;1.25;;
71106;SDS011;58763;47.982;11.516;2024-03-25T09:10:21;5.00;;;2.10;;
71106;SDS011;58763;47.982;11.516;2024-03-25T09:13:05;4.20;;;1.60;;
71106;SDS011;58763;47.982;11.516;2024-03-25T09:15:31;3.35;;;1.20;;
71106;SDS011;58763;47.982;11.516;2024-03-25T09:17:57;4.55;;;1.25;;
71106;SDS011;58763;47.982;11.516;2024-03-25T09:20:23;3.28;;;1.17;;
71106;SDS011;58763;47.982;11.516;2024-03-25T09:22:48;3.38;;;1.33;;
71106;SDS011;58763;47.982;11.516;2024-03-25T09:25:15;3.25;;;1.00;;
71106;SDS011;58763;47.982;11.516;2024-03-25T09:27:41;3.03;;;1.13;;
71106;SDS011;58763;47.982;11.516;2024-03-25T09:30:11;3.60;;;1.00;;
71106;SDS011;58763;47.982;11.516;2024-03-25T09:32:37;3.20;;;1.00;;
71106;SDS011;58763;47.982;11.516;2024-03-25T09:35:03;3.10;;;1.10;;
71106;SDS011;58763;47.982;11.516;2024-03-25T09:37:31;2.85;;;1.00;;
71106;SDS011;58763;47.982;11.516;2024-03-25T09:39:57;3.38;;;1.00;;
71106;SDS011;58763;47.982;11.516;2024-03-25T09:42:25;3.25;;;1.20;;
71106;SDS011;58763;47.982;11.516;2024-03-25T09:44:55;2.30;;;0.90;;
71106;SDS011;58763;47.982;11.516;2024-03-25T09:47:22;2.35;;;0.80;;
71106;SDS011;58763;47.982;11.516;2024-03-25T09:49:48;2.78;;;1.10;;
71106;SDS011;58763;47.982;11.516;2024-03-25T09:52:17;1.95;;;0.90;;
71106;SDS011;58763;47.982;11.516;2024-03-25T09:54:44;2.53;;;1.00;;
71106;SDS011;58763;47.982;11.516;2024-03-25T09:57:09;3.92;;;1.00;;
71106;SDS011;58763;47.982;11.516;2024-03-25T09:59:36;2.35;;;0.80;;
71106;SDS011;58763;47.982;11.516;2024-03-25T10:02:02;3.90;;;1.02;;
71106;SDS011;58763;47.982;11.516;2024-03-25T10:04:29;4.75;;;1.05;;
71106;SDS011;58763;47.982;11.516;2024-03-25T10:06:55;2.30;;;0.98;;
71106;SDS011;58763;47.982;11.516;2024-03-25T10:09:21;2.42;;;0.95;;
71106;SDS011;58763;47.982;11.516;2024-03-25T10:11:51;3.17;;;1.08;;
71106;SDS011;58763;47.982;11.516;2024-03-25T10:14:17;2.88;;;1.00;;
71106;SDS011;58763;47.982;11.516;2024-03-25T10:16:42;2.40;;;0.80;;
71106;SDS011;58763;47.982;11.516;2024-03-25T10:19:09;3.20;;;0.90;;
71106;SDS011;58763;47.982;11.516;2024-03-25T10:21:35;2.95;;;0.80;;
71106;SDS011;58763;47.982;11.516;2024-03-25T10:24:01;3.90;;;1.00;;
71106;SDS011;58763;47.982;11.516;2024-03-25T10:26:30;3.33;;;0.95;;
71106;SDS011;58763;47.982;11.516;2024-03-25T10:29:06;3.72;;;1.00;;
71106;SDS011;58763;47.982;11.516;2024-03-25T10:31:33;3.22;;;0.90;;
71106;SDS011;58763;47.982;11.516;2024-03-25T10:33:59;6.00;;;0.90;;
71106;SDS011;58763;47.982;11.516;2024-03-25T10:36:25;2.28;;;0.90;;
71106;SDS011;58763;47.982;11.516;2024-03-25T10:38:55;2.95;;;1.00;;
71106;SDS011;58763;47.982;11.516;2024-03-25T10:41:22;3.25;;;0.80;;
71106;SDS011;58763;47.982;11.516;2024-03-25T10:43:49;2.60;;;0.93;;
71106;SDS011;58763;47.982;11.516;2024-03-25T10:46:19;2.58;;;1.00;;
71106;SDS011;58763;47.982;11.516;2024-03-25T10:48:53;2.90;;;0.93;;
71106;SDS011;58763;47.982;11.516;2024-03-25T10:51:26;3.53;;;0.75;;
71106;SDS011;58763;47.982;11.516;2024-03-25T10:53:53;2.85;;;0.80;;
71106;SDS011;58763;47.982;11.516;2024-03-25T10:56:20;4.13;;;0.90;;
71106;SDS011;58763;47.982;11.516;2024-03-25T10:58:48;1.92;;;0.70;;
71106;SDS011;58763;47.982;11.516;2024-03-25T11:01:15;2.80;;;0.82;;
71106;SDS011;58763;47.982;11.516;2024-03-25T11:03:47;2.83;;;0.70;;
71106;SDS011;58763;47.982;11.516;2024-03-25T11:06:14;1.83;;;0.60;;
71106;SDS011;58763;47.982;11.516;2024-03-25T11:08:40;1.85;;;0.60;;
71106;SDS011;58763;47.982;11.516;2024-03-25T11:11:07;3.58;;;1.00;;
71106;SDS011;58763;47.982;11.516;2024-03-25T11:13:33;3.13;;;0.73;;
71106;SDS011;58763;47.982;11.516;2024-03-25T11:15:59;2.47;;;0.90;;
71106;SDS011;58763;47.982;11.516;2024-03-25T11:18:26;1.92;;;0.63;;
71106;SDS011;58763;47.982;11.516;2024-03-25T11:20:59;3.67;;;0.75;;
71106;SDS011;58763;47.982;11.516;2024-03-25T11:23:26;2.45;;;0.80;;
71106;SDS011;58763;47.982;11.516;2024-03-25T11:25:54;3.08;;;0.75;;
71106;SDS011;58763;47.982;11.516;2024-03-25T11:28:29;1.83;;;0.60;;
71106;SDS011;58763;47.982;11.516;2024-03-25T11:30:55;1.77;;;0.70;;
71106;SDS011;58763;47.982;11.516;2024-03-25T11:33:21;1.60;;;0.60;;
71106;SDS011;58763;47.982;11.516;2024-03-25T11:35:50;1.88;;;0.55;;
71106;SDS011;58763;47.982;11.516;2024-03-25T11:38:16;2.15;;;0.65;;
71106;SDS011;58763;47.982;11.516;2024-03-25T11:40:42;3.08;;;0.73;;
71106;SDS011;58763;47.982;11.516;2024-03-25T11:43:10;2.65;;;0.70;;
71106;SDS011;58763;47.982;11.516;2024-03-25T11:45:46;2.08;;;0.80;;
71106;SDS011;58763;47.982;11.516;2024-03-25T11:48:13;3.03;;;0.70;;
71106;SDS011;58763;47.982;11.516;2024-03-25T11:50:39;2.05;;;0.80;;
71106;SDS011;58763;47.982;11.516;2024-03-25T11:53:05;2.85;;;0.60;;
71106;SDS011;58763;47.982;11.516;2024-03-25T11:55:30;2.40;;;0.70;;
71106;SDS011;58763;47.982;11.516;2024-03-25T11:57:56;2.88;;;0.88;;
71106;SDS011;58763;47.982;11.516;2024-03-25T12:00:23;3.08;;;0.70;;
71106;SDS011;58763;47.982;11.516;2024-03-25T12:02:49;1.63;;;0.60;;
71106;SDS011;58763;47.982;11.516;2024-03-25T12:05:16;1.65;;;0.70;;
71106;SDS011;58763;47.982;11.516;2024-03-25T12:07:42;1.67;;;0.60;;
71106;SDS011;58763;47.982;11.516;2024-03-25T12:10:08;2.05;;;0.63;;
71106;SDS011;58763;47.982;11.516;2024-03-25T12:12:54;1.42;;;0.63;;
71106;SDS011;58763;47.982;11.516;2024-03-25T12:15:21;1.35;;;0.55;;
71106;SDS011;58763;47.982;11.516;2024-03-25T12:17:47;1.58;;;0.70;;
71106;SDS011;58763;47.982;11.516;2024-03-25T12:20:14;2.88;;;0.60;;
71106;SDS011;58763;47.982;11.516;2024-03-25T12:22:39;2.65;;;0.70;;
71106;SDS011;58763;47.982;11.516;2024-03-25T12:25:06;1.77;;;0.65;;
71106;SDS011;58763;47.982;11.516;2024-03-25T12:27:34;2.42;;;0.82;;
71106;SDS011;58763;47.982;11.516;2024-03-25T12:30:05;2.45;;;0.65;;
71106;SDS011;58763;47.982;11.516;2024-03-25T12:32:38;1.85;;;0.60;;
71106;SDS011;58763;47.982;11.516;2024-03-25T12:35:07;1.75;;;0.50;;
71106;SDS011;58763;47.982;11.516;2024-03-25T12:37:36;1.10;;;0.40;;
71106;SDS011;58763;47.982;11.516;2024-03-25T12:40:06;2.38;;;0.77;;
71106;SDS011;58763;47.982;11.516;2024-03-25T12:42:34;2.13;;;0.60;;
71106;SDS011;58763;47.982;11.516;2024-03-25T12:45:00;2.40;;;0.52;;
71106;SDS011;58763;47.982;11.516;2024-03-25T12:47:26;1.73;;;0.50;;
71106;SDS011;58763;47.982;11.516;2024-03-25T12:49:52;2.17;;;0.60;;
71106;SDS011;58763;47.982;11.516;2024-03-25T12:52:17;2.58;;;0.45;;
71106;SDS011;58763;47.982;11.516;2024-03-25T12:54:43;2.28;;;0.60;;
71106;SDS011;58763;47.982;11.516;2024-03-25T12:57:10;1.33;;;0.50;;
71106;SDS011;58763;47.982;11.516;2024-03-25T12:59:37;1.30;;;0.60;;
71106;SDS011;58763;47.982;11.516;2024-03-25T13:02:02;2.33;;;0.55;;
71106;SDS011;58763;47.982;11.516;2024-03-25T13:04:28;1.17;;;0.50;;
71106;SDS011;58763;47.982;11.516;2024-03-25T13:06:54;3.22;;;0.70;;
71106;SDS011;58763;47.982;11.516;2024-03-25T13:09:20;2.03;;;0.52;;
71106;SDS011;58763;47.982;11.516;2024-03-25T13:11:45;1.42;;;0.63;;
71106;SDS011;58763;47.982;11.516;2024-03-25T13:14:12;2.72;;;0.60;;
71106;SDS011;58763;47.982;11.516;2024-03-25T13:16:38;1.52;;;0.60;;
71106;SDS011;58763;47.982;11.516;2024-03-25T13:19:05;1.77;;;0.40;;
71106;SDS011;58763;47.982;11.516;2024-03-25T13:21:31;2.13;;;0.50;;
71106;SDS011;58763;47.982;11.516;2024-03-25T13:23:57;1.73;;;0.52;;
71106;SDS011;58763;47.982;11.516;2024-03-25T13:26:24;1.23;;;0.40;;
71106;SDS011;58763;47.982;11.516;2024-03-25T13:28:51;2.33;;;0.65;;
71106;SDS011;58763;47.982;11.516;2024-03-25T13:31:17;1.48;;;0.50;;
71106;SDS011;58763;47.982;11.516;2024-03-25T13:33:43;2.17;;;0.45;;
71106;SDS011;58763;47.982;11.516;2024-03-25T13:36:09;1.70;;;0.50;;
71106;SDS011;58763;47.982;11.516;2024-03-25T13:38:35;2.53;;;0.60;;
71106;SDS011;58763;47.982;11.516;2024-03-25T13:41:01;1.65;;;0.50;;
71106;SDS011;58763;47.982;11.516;2024-03-25T13:43:27;2.78;;;0.70;;
71106;SDS011;58763;47.982;11.516;2024-03-25T13:45:53;1.38;;;0.60;;
71106;SDS011;58763;47.982;11.516;2024-03-25T13:48:19;3.15;;;0.60;;
71106;SDS011;58763;47.982;11.516;2024-03-25T13:50:45;1.95;;;0.55;;
71106;SDS011;58763;47.982;11.516;2024-03-25T13:53:10;1.08;;;0.43;;
71106;SDS011;58763;47.982;11.516;2024-03-25T13:55:36;2.88;;;0.82;;
71106;SDS011;58763;47.982;11.516;2024-03-25T13:58:01;2.95;;;0.60;;
71106;SDS011;58763;47.982;11.516;2024-03-25T14:00:27;1.67;;;0.52;;
71106;SDS011;58763;47.982;11.516;2024-03-25T14:02:56;2.72;;;0.70;;
71106;SDS011;58763;47.982;11.516;2024-03-25T14:05:22;2.42;;;0.57;;
71106;SDS011;58763;47.982;11.516;2024-03-25T14:07:49;2.63;;;0.40;;
71106;SDS011;58763;47.982;11.516;2024-03-25T14:10:15;1.95;;;0.50;;
71106;SDS011;58763;47.982;11.516;2024-03-25T14:12:40;1.80;;;0.60;;
71106;SDS011;58763;47.982;11.516;2024-03-25T14:15:06;1.90;;;0.50;;
71106;SDS011;58763;47.982;11.516;2024-03-25T14:17:32;1.90;;;0.40;;
71106;SDS011;58763;47.982;11.516;2024-03-25T14:19:58;1.40;;;0.47;;
71106;SDS011;58763;47.982;11.516;2024-03-25T14:22:23;1.08;;;0.40;;
71106;SDS011;58763;47.982;11.516;2024-03-25T14:24:49;2.65;;;0.50;;
71106;SDS011;58763;47.982;11.516;2024-03-25T14:27:15;1.45;;;0.40;;
71106;SDS011;58763;47.982;11.516;2024-03-25T14:29:40;1.27;;;0.40;;